Time;durP1;ratioP1;P1;durP2;ratioP2;P2;SDS_P1;SDS_P2;PMS_P1;PMS_P2;Temp;Humidity;BMP_temperature;BMP_pressure;BME280_temperature;BME280_humidity;BME280_pressure;Samples;Min_cycle;Max_cycle;Signal;HPM_P1;HPM_P2
2022/02/12 00:01:46;;;;;;;16.63;4.03;;;;;;;0.14;100.00;102476.84;5196641;28;20138;-78
2022/02/12 00:04:16;;;;;;;19.80;5.63;;;;;;;0.16;100.00;102476.09;5194778;28;20079;-79
2022/02/12 00:06:46;;;;;;;28.20;6.47;;;;;;;0.15;100.00;102483.72;5208425;28;20041;-78
2022/02/12 00:09:17;;;;;;;8.57;2.90;;;;;;;0.25;100.00;102481.53;5196574;28;20108;-79
2022/02/12 00:11:47;;;;;;;12.68;2.95;;;;;;;0.31;100.00;102478.31;5202993;28;20062;-79
2022/02/12 00:14:17;;;;;;;13.90;2.92;;;;;;;0.28;100.00;102484.25;5212548;28;20021;-79
2022/02/12 00:16:48;;;;;;;10.27;2.40;;;;;;;0.14;100.00;102485.44;5217055;28;20033;-78
2022/02/12 00:19:18;;;;;;;9.25;2.25;;;;;;;0.19;100.00;102491.63;5215411;28;20021;-78
2022/02/12 00:21:48;;;;;;;9.45;2.38;;;;;;;0.00;100.00;102491.75;5214996;28;20028;-79
2022/02/12 00:24:19;;;;;;;9.80;2.47;;;;;;;-0.01;100.00;102487.44;5215663;28;20022;-79
2022/02/12 00:26:49;;;;;;;10.95;2.90;;;;;;;-0.02;100.00;102493.41;5215770;28;20038;-79
2022/02/12 00:29:19;;;;;;;6.38;2.15;;;;;;;-0.13;100.00;102490.34;5216752;28;20029;-78
2022/02/12 00:31:49;;;;;;;12.35;2.22;;;;;;;-0.11;100.00;102491.28;5208375;28;20030;-78
2022/02/12 00:34:20;;;;;;;8.15;2.50;;;;;;;-0.09;100.00;102490.53;5193463;28;20427;-79
2022/02/12 00:36:50;;;;;;;9.27;2.25;;;;;;;-0.18;100.00;102487.59;5195623;28;20051;-78
2022/02/12 00:39:20;;;;;;;9.25;2.08;;;;;;;-0.17;100.00;102491.06;5194305;28;20049;-78
2022/02/12 00:41:51;;;;;;;7.88;2.70;;;;;;;-0.18;100.00;102492.75;5197159;28;20022;-78
2022/02/12 00:44:23;;;;;;;11.13;3.03;;;;;;;-0.15;100.00;102505.72;5196246;28;20034;-79
2022/02/12 00:46:53;;;;;;;7.50;2.53;;;;;;;-0.21;100.00;102495.19;5197316;28;20056;-79
2022/02/12 00:49:24;;;;;;;9.63;2.55;;;;;;;-0.28;100.00;102495.78;5196655;28;20181;-79
2022/02/12 00:51:54;;;;;;;7.22;2.20;;;;;;;-0.26;100.00;102498.41;5196020;28;20396;-79
2022/02/12 00:54:24;;;;;;;11.55;2.33;;;;;;;-0.23;100.00;102503.69;5196651;28;20033;-79
2022/02/12 00:56:55;;;;;;;8.20;2.15;;;;;;;-0.25;100.00;102502.75;5196958;28;20089;-79
2022/02/12 00:59:25;;;;;;;7.80;2.53;;;;;;;-0.21;100.00;102502.06;5195450;28;20030;-79
2022/02/12 01:01:55;;;;;;;13.48;2.55;;;;;;;-0.17;100.00;102503.91;5196323;28;20056;-78
2022/02/12 01:04:26;;;;;;;9.98;2.90;;;;;;;-0.21;100.00;102496.91;5194799;28;20030;-79
2022/02/12 01:06:56;;;;;;;7.68;2.30;;;;;;;-0.13;100.00;102487.78;5196278;28;20427;-78
2022/02/12 01:09:26;;;;;;;10.68;2.30;;;;;;;-0.25;100.00;102488.19;5194870;28;20053;-78
2022/02/12 01:11:56;;;;;;;7.93;2.33;;;;;;;-0.17;100.00;102485.94;5195579;28;20548;-79
2022/02/12 01:14:27;;;;;;;7.10;2.00;;;;;;;-0.33;100.00;102483.59;5216305;28;20030;-78
2022/02/12 01:16:57;;;;;;;10.85;2.60;;;;;;;-0.38;100.00;102485.97;5216062;28;20021;-78
2022/02/12 01:19:27;;;;;;;11.63;2.47;;;;;;;-0.46;100.00;102486.50;5216909;28;20029;-79
2022/02/12 01:21:58;;;;;;;9.55;2.30;;;;;;;-0.39;100.00;102493.63;5216237;28;20152;-78
2022/02/12 01:24:28;;;;;;;9.95;2.47;;;;;;;-0.42;100.00;102491.81;5215715;28;20104;-79
2022/02/12 01:26:58;;;;;;;8.90;2.40;;;;;;;-0.38;100.00;102490.25;5215105;28;20025;-79
2022/02/12 01:29:28;;;;;;;13.75;2.63;;;;;;;-0.54;100.00;102482.75;5216879;28;20036;-79
2022/02/12 01:32:03;;;;;;;8.85;2.10;;;;;;;-0.41;100.00;102488.41;5215702;28;20022;-79
2022/02/12 01:34:36;;;;;;;6.80;2.20;;;;;;;-0.32;100.00;102487.91;5194556;28;20045;-78
2022/02/12 01:37:08;;;;;;;9.73;2.13;;;;;;;-0.34;100.00;102489.53;5195742;28;20045;-79
2022/02/12 01:39:38;;;;;;;6.50;2.30;;;;;;;-0.43;100.00;102492.63;5196595;28;20057;-79
2022/02/12 01:42:08;;;;;;;11.43;2.38;;;;;;;-0.49;100.00;102483.81;5198399;28;20026;-78
2022/02/12 01:44:38;;;;;;;12.60;2.60;;;;;;;-0.41;100.00;102491.00;5199706;28;20030;-78
2022/02/12 01:47:10;;;;;;;11.73;2.38;;;;;;;-0.47;100.00;102479.59;5199213;28;20026;-79
2022/02/12 01:49:41;;;;;;;10.00;2.45;;;;;;;-0.54;100.00;102477.63;5197680;28;20033;-78
2022/02/12 01:52:13;;;;;;;9.85;2.35;;;;;;;-0.45;100.00;102468.59;5198867;28;20026;-79
2022/02/12 01:54:44;;;;;;;10.23;2.03;;;;;;;-0.28;100.00;102464.09;5198213;28;20100;-78
2022/02/12 01:57:14;;;;;;;8.43;2.25;;;;;;;-0.32;100.00;102459.66;5197113;28;20034;-79
2022/02/12 01:59:44;;;;;;;7.68;2.38;;;;;;;-0.48;100.00;102476.19;5198859;28;20044;-78
2022/02/12 02:02:15;;;;;;;11.18;2.50;;;;;;;-0.53;100.00;102467.41;5197357;28;20021;-79
2022/02/12 02:04:45;;;;;;;9.82;3.00;;;;;;;-0.41;100.00;102472.16;5219344;28;20045;-79
2022/02/12 02:07:16;;;;;;;10.63;2.88;;;;;;;-0.43;100.00;102477.22;5219293;28;20083;-78
2022/02/12 02:09:47;;;;;;;9.50;2.70;;;;;;;-0.39;100.00;102479.09;5218295;28;20084;-78
2022/02/12 02:12:17;;;;;;;8.60;2.53;;;;;;;-0.51;100.00;102477.75;5218885;28;20080;-78
2022/02/12 02:14:47;;;;;;;11.27;2.53;;;;;;;-0.28;100.00;102471.78;5218191;28;20057;-77
2022/02/12 02:17:18;;;;;;;11.23;2.53;;;;;;;-0.50;100.00;102464.09;5217791;28;20085;-78
2022/02/12 02:19:48;;;;;;;7.43;2.72;;;;;;;-0.57;100.00;102472.38;5217824;28;20025;-79
2022/02/12 02:22:29;;;;;;;11.30;2.22;;;;;;;-0.53;100.00;102469.09;5217738;28;20021;-79
2022/02/12 02:24:59;;;;;;;8.07;2.22;;;;;;;-0.66;100.00;102469.44;5217398;28;20025;-78
2022/02/12 02:27:30;;;;;;;12.00;2.60;;;;;;;-0.74;100.00;102465.69;5217633;28;20027;-78
2022/02/12 02:30:00;;;;;;;11.10;2.22;;;;;;;-0.79;100.00;102464.63;5218105;28;20556;-78
2022/02/12 02:32:30;;;;;;;7.85;2.70;;;;;;;-0.75;100.00;102461.38;5216595;28;20024;-78
2022/02/12 02:35:00;;;;;;;15.43;2.70;;;;;;;-0.74;100.00;102453.72;5217071;28;20091;-78
2022/02/12 02:37:31;;;;;;;7.88;2.35;;;;;;;-0.68;100.00;102460.81;5218058;28;20052;-79
2022/02/12 02:40:01;;;;;;;15.27;2.80;;;;;;;-0.70;100.00;102459.88;5218078;28;20535;-78
2022/02/12 02:42:31;;;;;;;14.30;2.80;;;;;;;-0.62;100.00;102461.03;5218541;28;20029;-78
2022/02/12 02:45:02;;;;;;;12.77;2.38;;;;;;;-0.65;100.00;102458.34;5219085;28;20053;-78
2022/02/12 02:47:33;;;;;;;9.50;2.53;;;;;;;-0.79;100.00;102467.19;5218250;28;20036;-78
2022/02/12 02:55:59;;;;;;;12.48;2.80;;;;;;;-0.77;100.00;102465.56;5214909;28;20044;-79
2022/02/12 02:58:38;;;;;;;5.90;2.60;;;;;;;-0.86;100.00;102468.63;5218137;28;20036;-78
2022/02/12 03:01:14;;;;;;;9.15;2.83;;;;;;;-0.80;100.00;102457.75;5215904;28;20121;-78
2022/02/12 03:03:48;;;;;;;13.15;2.70;;;;;;;-0.67;100.00;102459.97;5216111;28;20033;-79
2022/02/12 03:06:21;;;;;;;9.40;2.85;;;;;;;-0.81;100.00;102456.88;5216647;28;20022;-78
2022/02/12 03:08:52;;;;;;;15.45;2.85;;;;;;;-0.60;100.00;102451.69;5217703;28;20073;-78
2022/02/12 03:11:23;;;;;;;11.05;3.10;;;;;;;-0.64;100.00;102443.03;5214263;28;20197;-79
2022/02/12 03:13:57;;;;;;;16.23;3.10;;;;;;;-0.56;100.00;102445.88;5193482;28;20128;-77
2022/02/12 03:16:27;;;;;;;11.52;2.80;;;;;;;-0.59;100.00;102446.63;5197312;28;20072;-78
2022/02/12 03:18:58;;;;;;;13.30;2.65;;;;;;;-0.36;100.00;102444.94;5197493;28;20018;-78
2022/02/12 03:21:28;;;;;;;9.77;2.72;;;;;;;-0.18;100.00;102448.22;5197046;28;20108;-79
2022/02/12 03:23:58;;;;;;;10.68;2.67;;;;;;;-0.41;100.00;102459.31;5196605;28;20142;-78
2022/02/12 03:26:29;;;;;;;11.57;2.53;;;;;;;-0.49;100.00;102453.00;5197074;28;20040;-78
2022/02/12 03:28:59;;;;;;;11.07;2.83;;;;;;;-0.61;100.00;102449.94;5196505;28;20022;-79
2022/02/12 03:31:30;;;;;;;7.00;2.63;;;;;;;-0.50;100.00;102446.09;5196264;28;20050;-78
2022/02/12 03:34:00;;;;;;;11.65;2.97;;;;;;;-0.61;100.00;102444.81;5196820;28;20141;-78
2022/02/12 03:36:31;;;;;;;12.52;3.13;;;;;;;-0.39;100.00;102439.72;5195259;28;20085;-79
2022/02/12 03:39:02;;;;;;;10.30;2.45;;;;;;;-0.53;100.00;102452.00;5195462;28;20090;-78
2022/02/12 03:41:32;;;;;;;10.50;2.65;;;;;;;-0.65;100.00;102446.41;5196441;28;20072;-79
2022/02/12 03:44:03;;;;;;;9.57;2.95;;;;;;;-0.60;100.00;102447.44;5237527;22;21007;-79
2022/02/12 03:46:35;;;;;;;11.43;2.90;;;;;;;-0.64;100.00;102440.44;5230055;28;20394;-79
2022/02/12 03:49:05;;;;;;;11.63;2.80;;;;;;;-0.71;100.00;102445.28;5228450;28;20033;-79
2022/02/12 03:51:35;;;;;;;9.13;2.47;;;;;;;-0.77;100.00;102450.16;5230409;28;20478;-79
2022/02/12 03:54:06;;;;;;;11.13;2.92;;;;;;;-0.73;100.00;102449.47;5212436;28;20436;-79
2022/02/12 03:56:36;;;;;;;11.40;2.75;;;;;;;-0.79;100.00;102441.53;5215014;28;20032;-79
2022/02/12 03:59:06;;;;;;;13.10;2.50;;;;;;;-0.76;100.00;102442.53;5213205;28;20025;-79
2022/02/12 04:01:38;;;;;;;12.75;2.55;;;;;;;-0.86;100.00;102437.81;5212117;28;20083;-79
2022/02/12 04:04:08;;;;;;;11.80;2.28;;;;;;;-0.84;100.00;102437.91;5210399;28;20036;-79
2022/02/12 04:06:38;;;;;;;13.20;2.53;;;;;;;-0.77;100.00;102443.34;5212362;28;20051;-79
2022/02/12 04:09:08;;;;;;;6.13;2.20;;;;;;;-0.80;100.00;102437.19;5211986;28;20060;-79
2022/02/12 04:11:39;;;;;;;10.95;2.30;;;;;;;-0.81;100.00;102441.47;5212094;28;20044;-79
2022/02/12 04:14:09;;;;;;;11.52;2.30;;;;;;;-0.76;100.00;102437.41;5206400;28;20033;-79
2022/02/12 04:16:39;;;;;;;8.15;2.22;;;;;;;-0.82;100.00;102436.28;5210394;28;20031;-79
2022/02/12 04:19:09;;;;;;;8.63;2.00;;;;;;;-0.91;100.00;102423.94;5212562;28;20071;-79
2022/02/12 04:21:40;;;;;;;11.70;2.53;;;;;;;-0.95;100.00;102421.19;5213580;28;20033;-79
2022/02/12 04:24:10;;;;;;;9.85;2.00;;;;;;;-0.90;100.00;102425.69;5206987;28;20442;-79
2022/02/12 04:26:40;;;;;;;8.15;2.40;;;;;;;-0.83;100.00;102425.16;5215324;28;20035;-79
2022/02/12 04:29:11;;;;;;;8.98;2.22;;;;;;;-0.98;100.00;102432.22;5213800;28;20048;-79
2022/02/12 04:31:41;;;;;;;10.48;2.70;;;;;;;-1.02;100.00;102424.34;5210249;28;20032;-79
2022/02/12 04:34:12;;;;;;;8.40;2.35;;;;;;;-1.00;100.00;102421.03;5210587;28;20471;-79
2022/02/12 04:36:42;;;;;;;8.90;2.33;;;;;;;-1.07;100.00;102426.72;5211121;28;20036;-79
2022/02/12 04:39:12;;;;;;;11.68;2.30;;;;;;;-1.00;100.00;102418.47;5211588;28;20084;-79
2022/02/12 04:41:42;;;;;;;9.48;2.15;;;;;;;-0.89;100.00;102421.47;5211393;28;20090;-79
2022/02/12 04:44:13;;;;;;;8.32;1.90;;;;;;;-0.97;100.00;102418.59;5207046;28;20033;-79
2022/02/12 04:46:43;;;;;;;12.20;2.30;;;;;;;-0.79;100.00;102418.41;5207071;28;20044;-79
2022/02/12 04:49:13;;;;;;;11.13;2.15;;;;;;;-0.70;100.00;102418.81;5210688;28;20360;-79
2022/02/12 04:51:43;;;;;;;6.38;1.77;;;;;;;-0.71;100.00;102422.19;5210969;28;20398;-79
2022/02/12 04:54:14;;;;;;;10.90;1.95;;;;;;;-0.71;100.00;102411.91;5211070;28;20025;-79
2022/02/12 04:56:44;;;;;;;7.15;2.00;;;;;;;-0.74;100.00;102416.94;5215018;28;20025;-79
2022/02/12 04:59:14;;;;;;;9.60;1.80;;;;;;;-0.44;100.00;102412.97;5215437;28;20079;-79
2022/02/12 05:01:45;;;;;;;10.43;1.95;;;;;;;-0.54;100.00;102395.47;5212279;28;20033;-79
2022/02/12 05:04:15;;;;;;;7.32;1.63;;;;;;;-0.58;100.00;102403.88;5212350;28;20043;-79
2022/02/12 05:06:46;;;;;;;7.35;1.48;;;;;;;-0.57;100.00;102400.50;5211894;28;20052;-79
2022/02/12 05:09:16;;;;;;;8.48;1.80;;;;;;;-0.49;100.00;102405.09;5214646;28;20067;-79
2022/02/12 05:11:48;;;;;;;8.77;1.33;;;;;;;-0.54;100.00;102398.91;5212254;28;20394;-79
2022/02/12 05:14:19;;;;;;;9.35;1.80;;;;;;;-0.57;100.00;102396.22;5209210;28;20025;-79
2022/02/12 05:16:49;;;;;;;11.95;2.05;;;;;;;-0.51;100.00;102398.16;5209220;28;20032;-79
2022/02/12 05:19:19;;;;;;;12.18;1.98;;;;;;;-0.56;100.00;102397.09;5217349;28;20024;-79
2022/02/12 05:21:50;;;;;;;4.65;1.45;;;;;;;-0.72;100.00;102399.91;5214874;28;20150;-79
2022/02/12 05:24:20;;;;;;;8.85;1.75;;;;;;;-0.78;100.00;102402.22;5214915;28;20505;-79
2022/02/12 05:26:51;;;;;;;9.95;1.70;;;;;;;-0.62;100.00;102391.72;5219768;28;20033;-79
2022/02/12 05:29:21;;;;;;;8.73;1.75;;;;;;;-0.69;100.00;102389.75;5218919;28;20032;-79
2022/02/12 05:31:51;;;;;;;10.85;1.80;;;;;;;-0.77;100.00;102394.59;5214480;28;20163;-79
2022/02/12 05:34:22;;;;;;;6.65;1.65;;;;;;;-0.82;100.00;102393.53;5218114;28;20405;-79
2022/02/12 05:36:52;;;;;;;8.68;1.67;;;;;;;-0.90;100.00;102389.78;5217593;28;20039;-79
2022/02/12 05:39:22;;;;;;;7.95;1.33;;;;;;;-0.90;100.00;102384.66;5218823;28;20020;-79
2022/02/12 05:41:53;;;;;;;9.73;1.77;;;;;;;-1.02;100.00;102378.16;5218382;28;20137;-79
2022/02/12 05:44:23;;;;;;;6.60;1.80;;;;;;;-1.02;100.00;102380.72;5212059;28;20041;-79
2022/02/12 05:46:54;;;;;;;9.32;1.60;;;;;;;-1.07;100.00;102384.81;5212159;28;20537;-79
2022/02/12 05:49:24;;;;;;;9.13;1.63;;;;;;;-0.97;100.00;102386.91;5218009;28;20029;-79
2022/02/12 05:51:54;;;;;;;6.70;1.50;;;;;;;-1.00;100.00;102387.69;5218036;28;20120;-79
2022/02/12 05:54:25;;;;;;;5.75;1.50;;;;;;;-1.10;100.00;102379.56;5217910;28;20032;-79
2022/02/12 05:56:55;;;;;;;6.65;1.55;;;;;;;-1.05;100.00;102380.63;5219085;28;20025;-79
2022/02/12 05:59:25;;;;;;;4.75;1.35;;;;;;;-1.05;100.00;102380.63;5218217;28;20028;-79
2022/02/12 06:01:57;;;;;;;8.52;1.17;;;;;;;-0.99;100.00;102376.59;5212748;28;20021;-79
2022/02/12 06:04:27;;;;;;;6.93;1.40;;;;;;;-1.06;100.00;102379.72;5215888;28;20028;-79
2022/02/12 06:06:57;;;;;;;6.60;1.30;;;;;;;-1.12;100.00;102365.78;5218595;28;20082;-79
2022/02/12 06:09:27;;;;;;;7.10;1.20;;;;;;;-1.13;100.00;102372.63;5213958;28;20027;-79
2022/02/12 06:11:58;;;;;;;4.70;0.93;;;;;;;-1.13;100.00;102364.03;5216703;28;20495;-79
2022/02/12 06:14:28;;;;;;;5.85;1.20;;;;;;;-1.21;100.00;102368.84;5208025;28;20040;-79
2022/02/12 06:17:00;;;;;;;3.50;1.00;;;;;;;-1.13;100.00;102371.72;5213063;28;20025;-79
2022/02/12 06:19:30;;;;;;;7.10;1.20;;;;;;;-1.16;100.00;102375.06;5216662;28;20071;-79
2022/02/12 06:22:00;;;;;;;7.25;1.42;;;;;;;-1.07;100.00;102379.69;5212580;28;20057;-79
2022/02/12 06:24:30;;;;;;;8.98;1.10;;;;;;;-1.30;100.00;102371.06;5215743;28;20029;-79
2022/02/12 06:27:04;;;;;;;6.63;1.33;;;;;;;-1.34;100.00;102364.06;5219132;28;20546;-79
2022/02/12 06:29:34;;;;;;;7.00;0.98;;;;;;;-1.33;100.00;102370.06;5216723;28;20135;-79
2022/02/12 06:32:05;;;;;;;3.75;1.00;;;;;;;-1.22;100.00;102363.69;5214824;28;20108;-79
2022/02/12 06:34:35;;;;;;;5.95;1.02;;;;;;;-1.16;100.00;102358.78;5215830;28;20444;-79
2022/02/12 06:37:06;;;;;;;6.45;1.20;;;;;;;-1.26;100.00;102351.56;5215453;28;20049;-79
2022/02/12 06:39:36;;;;;;;8.07;1.25;;;;;;;-1.26;100.00;102357.56;5215889;28;20036;-79
2022/02/12 06:42:06;;;;;;;5.57;1.05;;;;;;;-1.18;100.00;102356.19;5213974;28;20033;-79
2022/02/12 06:44:37;;;;;;;6.88;1.02;;;;;;;-1.19;100.00;102353.53;5212207;28;20033;-79
2022/02/12 06:47:08;;;;;;;8.40;0.95;;;;;;;-1.27;100.00;102353.22;5213209;28;20035;-79
2022/02/12 06:49:38;;;;;;;7.35;1.13;;;;;;;-0.91;100.00;102354.69;5215156;28;20086;-79
2022/02/12 06:52:09;;;;;;;7.60;1.15;;;;;;;-0.82;100.00;102354.16;5213627;28;20426;-79
2022/02/12 06:54:39;;;;;;;5.13;1.05;;;;;;;-0.92;100.00;102350.38;5213982;28;20040;-79
2022/02/12 06:57:10;;;;;;;7.80;1.45;;;;;;;-0.92;100.00;102355.50;5219319;28;20032;-79
2022/02/12 06:59:40;;;;;;;4.50;0.93;;;;;;;-0.90;100.00;102345.31;5212791;28;20376;-78
2022/02/12 07:02:10;;;;;;;4.85;1.23;;;;;;;-1.00;100.00;102345.75;5212249;28;20497;-79
2022/02/12 07:04:40;;;;;;;3.45;0.95;;;;;;;-0.97;100.00;102335.59;5212425;28;20483;-79
2022/02/12 07:07:11;;;;;;;5.15;1.20;;;;;;;-0.64;100.00;102348.03;5212874;28;20482;-79
2022/02/12 07:09:41;;;;;;;4.75;1.13;;;;;;;-0.75;100.00;102345.91;5212758;28;20229;-79
2022/02/12 07:12:11;;;;;;;8.70;1.10;;;;;;;-0.71;100.00;102337.50;5211854;28;20025;-79
2022/02/12 07:14:41;;;;;;;8.02;1.10;;;;;;;-0.59;100.00;102343.94;5209594;28;20075;-79
2022/02/12 07:17:12;;;;;;;7.18;1.20;;;;;;;-0.58;100.00;102347.41;5210900;28;20029;-79
2022/02/12 07:19:42;;;;;;;6.10;1.20;;;;;;;-0.50;100.00;102352.00;5213589;28;20068;-79
2022/02/12 07:22:12;;;;;;;7.40;1.63;;;;;;;-0.62;100.00;102346.41;5214432;28;20034;-79
2022/02/12 07:24:43;;;;;;;7.00;1.27;;;;;;;-0.76;100.00;102351.84;5211988;28;20033;-79
2022/02/12 07:27:13;;;;;;;5.60;1.13;;;;;;;-0.53;100.00;102356.13;5215683;28;20029;-79
2022/02/12 07:29:43;;;;;;;3.17;0.82;;;;;;;-0.36;100.00;102352.50;5212215;28;20037;-79
2022/02/12 07:32:14;;;;;;;4.70;1.02;;;;;;;-0.28;100.00;102358.78;5210645;28;20175;-79
2022/02/12 07:34:44;;;;;;;6.90;1.27;;;;;;;0.11;100.00;102359.41;5209818;28;20618;-80
2022/02/12 07:37:14;;;;;;;4.53;0.85;;;;;;;0.81;100.00;102360.91;5210122;28;20024;-79
2022/02/12 07:39:44;;;;;;;4.65;0.95;;;;;;;1.19;100.00;102350.13;5211289;28;20305;-79
2022/02/12 07:42:15;;;;;;;6.22;1.33;;;;;;;1.60;100.00;102347.03;5212424;28;20636;-80
2022/02/12 07:44:45;;;;;;;5.43;0.95;;;;;;;2.00;96.50;102343.03;5210710;28;20036;-80
2022/02/12 07:47:15;;;;;;;5.03;1.10;;;;;;;2.74;95.25;102334.66;5209183;28;20128;-80
2022/02/12 07:49:45;;;;;;;5.68;1.20;;;;;;;3.06;92.36;102344.03;5212870;28;20036;-80
2022/02/12 07:52:16;;;;;;;4.90;1.10;;;;;;;3.19;90.38;102349.50;5211327;28;20036;-81
2022/02/12 07:54:46;;;;;;;5.97;1.17;;;;;;;2.67;89.58;102345.66;5212495;28;20094;-80
2022/02/12 07:57:16;;;;;;;9.02;1.40;;;;;;;2.35;93.79;102347.44;5212288;28;20037;-79
2022/02/12 07:59:47;;;;;;;5.38;1.27;;;;;;;3.26;94.89;102342.75;5207428;28;20053;-80
2022/02/12 08:02:17;;;;;;;7.60;1.27;;;;;;;2.70;94.34;102346.59;5211163;28;20506;-80
2022/02/12 08:04:47;;;;;;;8.40;1.48;;;;;;;3.82;92.09;102343.13;5211688;28;20048;-80
2022/02/12 08:07:30;;;;;;;7.55;1.50;;;;;;;3.81;89.33;102339.63;5211268;28;20029;-81
2022/02/12 08:12:57;;;;;;;4.65;1.35;;;;;;;6.81;81.38;102323.16;5211854;28;20121;-80
2022/02/12 08:15:28;;;;;;;5.70;1.05;;;;;;;6.32;79.28;102326.19;5206596;28;20479;-80
2022/02/12 08:17:59;;;;;;;6.38;1.48;;;;;;;6.61;81.68;102322.97;5209933;28;20494;-81
2022/02/12 08:20:29;;;;;;;8.68;1.67;;;;;;;8.47;72.74;102314.34;5209904;28;20044;-80
2022/02/12 08:22:59;;;;;;;8.10;1.45;;;;;;;9.01;70.92;102314.34;5207394;28;20053;-80
2022/02/12 08:25:29;;;;;;;5.45;1.42;;;;;;;9.05;70.32;102318.66;5214046;28;20340;-80
2022/02/12 08:28:00;;;;;;;5.38;1.10;;;;;;;9.52;66.37;102316.81;5213556;28;20108;-80
2022/02/12 08:30:30;;;;;;;10.82;1.73;;;;;;;9.83;67.14;102315.81;5212880;28;20082;-80
2022/02/12 08:33:00;;;;;;;7.97;1.17;;;;;;;9.62;66.22;102315.91;5208734;28;20477;-80
2022/02/12 08:35:31;;;;;;;6.47;1.40;;;;;;;9.43;66.13;102328.16;5212410;28;20052;-79
2022/02/12 08:38:01;;;;;;;3.67;1.20;;;;;;;9.62;65.87;102315.91;5209177;28;20036;-79
2022/02/12 08:40:31;;;;;;;4.63;1.08;;;;;;;9.52;66.94;102308.97;5212323;28;20024;-80
2022/02/12 08:43:02;;;;;;;4.35;1.30;;;;;;;10.03;66.69;102300.94;5208700;28;20037;-79
2022/02/12 08:45:32;;;;;;;6.25;1.65;;;;;;;9.37;66.99;102304.69;5214503;28;20395;-79
2022/02/12 08:48:05;;;;;;;5.38;1.35;;;;;;;9.14;67.76;102303.00;5212584;28;20025;-79
2022/02/12 08:50:38;;;;;;;5.95;1.33;;;;;;;9.74;64.88;102313.25;5211214;28;20380;-79
2022/02/12 08:53:08;;;;;;;4.97;1.20;;;;;;;9.97;65.91;102311.41;5208602;28;20025;-80
2022/02/12 08:55:38;;;;;;;4.38;1.17;;;;;;;8.65;68.31;102321.28;5214695;28;20031;-79
2022/02/12 08:58:09;;;;;;;5.47;1.40;;;;;;;9.12;68.04;102316.91;5212901;28;20036;-80
2022/02/12 09:00:39;;;;;;;4.72;1.25;;;;;;;8.36;70.07;102312.63;5210747;28;20029;-79
2022/02/12 09:03:10;;;;;;;4.90;1.17;;;;;;;8.59;70.40;102316.94;5208367;28;20024;-79
2022/02/12 09:05:40;;;;;;;6.45;1.63;;;;;;;8.35;71.29;102316.94;5210434;28;20039;-79
2022/02/12 09:08:11;;;;;;;8.07;1.27;;;;;;;7.59;72.15;102314.97;5210565;28;20125;-79
2022/02/12 09:10:43;;;;;;;6.13;1.30;;;;;;;6.37;77.59;102311.50;5210586;28;20112;-80
2022/02/12 09:13:14;;;;;;;4.22;1.10;;;;;;;5.96;79.83;102320.63;5209674;28;20028;-79
2022/02/12 09:15:44;;;;;;;3.80;1.20;;;;;;;5.39;82.54;102322.47;5214751;28;20051;-78
2022/02/12 09:18:15;;;;;;;8.52;1.23;;;;;;;5.19;85.01;102320.47;5214133;28;20033;-78
2022/02/12 09:20:45;;;;;;;5.32;1.48;;;;;;;5.08;86.64;102311.66;5208576;28;20793;-80
2022/02/12 09:23:15;;;;;;;8.18;1.30;;;;;;;4.64;87.76;102313.56;5207428;28;20265;-80
2022/02/12 09:25:46;;;;;;;7.53;1.30;;;;;;;4.64;86.91;102308.38;5213284;28;20389;-79
2022/02/12 09:28:16;;;;;;;7.50;1.50;;;;;;;4.71;88.03;102305.06;5212957;28;20031;-80
2022/02/12 09:30:46;;;;;;;8.00;1.23;;;;;;;4.86;88.59;102309.59;5209554;28;20037;-79
2022/02/12 09:33:16;;;;;;;5.22;1.10;;;;;;;4.83;88.50;102307.81;5207244;28;20471;-80
2022/02/12 09:35:53;;;;;;;5.75;1.30;;;;;;;4.83;88.20;102304.38;5212506;28;20020;-79
2022/02/12 09:38:24;;;;;;;12.98;1.60;;;;;;;4.98;88.63;102294.25;5208099;28;20029;-79
2022/02/12 09:40:56;;;;;;;6.78;1.20;;;;;;;4.99;89.22;102289.06;5208929;28;20076;-78
2022/02/12 09:43:29;;;;;;;6.65;1.30;;;;;;;5.06;88.56;102282.25;5205058;28;20022;-81
2022/02/12 09:46:27;;;;;;;9.68;1.45;;;;;;;5.09;87.38;102279.69;5209230;28;20025;-79
2022/02/12 09:48:58;;;;;;;8.07;1.45;;;;;;;5.31;86.68;102271.38;5208772;28;20029;-79
2022/02/12 09:51:30;;;;;;;10.13;1.35;;;;;;;5.37;86.35;102279.22;5211924;28;20152;-80
2022/02/12 09:54:01;;;;;;;8.73;1.40;;;;;;;5.27;86.47;102278.25;5208554;28;20326;-81
2022/02/12 09:56:34;;;;;;;9.02;1.38;;;;;;;5.28;85.31;102277.38;5213253;28;20052;-80
2022/02/12 09:59:05;;;;;;;6.22;1.40;;;;;;;5.26;85.91;102276.50;5207680;28;20033;-79
2022/02/12 10:01:39;;;;;;;5.88;1.33;;;;;;;5.36;85.61;102272.31;5209492;28;20033;-80
2022/02/12 10:04:16;;;;;;;7.60;1.40;;;;;;;5.56;85.72;102266.53;5212294;28;20025;-79
2022/02/12 10:06:47;;;;;;;4.43;1.30;;;;;;;5.64;84.11;102264.88;5215247;28;20039;-79
2022/02/12 10:09:18;;;;;;;5.75;1.38;;;;;;;5.65;84.70;102258.81;5214589;28;20391;-79
2022/02/12 10:11:50;;;;;;;7.18;1.30;;;;;;;5.55;81.89;102251.81;5211976;28;20028;-81
2022/02/12 10:14:23;;;;;;;6.95;1.30;;;;;;;5.63;82.12;102252.75;5212116;28;20033;-79
2022/02/12 10:17:00;;;;;;;5.75;1.00;;;;;;;5.79;84.34;102257.28;5217099;28;20025;-80
2022/02/12 10:19:36;;;;;;;5.65;1.45;;;;;;;5.75;83.98;102250.31;5212273;28;20447;-80
2022/02/12 10:22:09;;;;;;;10.13;1.40;;;;;;;5.78;82.51;102245.16;5215869;28;20028;-80
2022/02/12 10:24:51;;;;;;;5.22;0.82;;;;;;;5.71;82.42;102233.84;5215932;28;20036;-81
2022/02/12 10:27:25;;;;;;;4.18;1.25;;;;;;;5.92;85.34;102233.22;5219866;28;20294;-81
2022/02/12 10:29:58;;;;;;;8.05;1.40;;;;;;;5.88;82.32;102234.06;5212689;28;20394;-82
2022/02/12 10:32:29;;;;;;;7.07;1.77;;;;;;;5.80;85.02;102226.19;5211957;28;20036;-81
2022/02/12 10:34:59;;;;;;;4.05;1.20;;;;;;;5.91;82.46;102223.69;5206657;28;20032;-80
2022/02/12 10:37:29;;;;;;;7.28;1.35;;;;;;;6.15;84.48;102224.78;5210386;28;20072;-80
2022/02/12 10:40:02;;;;;;;7.43;1.40;;;;;;;6.14;84.94;102206.59;5212688;28;20040;-80
2022/02/12 10:42:34;;;;;;;5.63;1.40;;;;;;;6.20;84.60;102201.44;5208441;28;20030;-80
2022/02/12 10:45:05;;;;;;;6.60;1.65;;;;;;;6.12;83.58;102191.00;5210986;28;20029;-81
2022/02/12 10:47:36;;;;;;;6.40;1.20;;;;;;;6.12;83.85;102192.75;5211569;28;20045;-79
2022/02/12 10:50:07;;;;;;;8.80;1.52;;;;;;;5.91;82.36;102188.22;5211930;28;20283;-79
2022/02/12 10:52:48;;;;;;;7.45;1.40;;;;;;;5.78;82.10;102188.97;5210964;28;20109;-79
2022/02/12 10:55:31;;;;;;;10.73;1.38;;;;;;;5.97;83.54;102188.31;5214430;28;20032;-80
2022/02/12 10:58:11;;;;;;;6.55;1.48;;;;;;;6.00;82.10;102188.31;5214053;28;20057;-79
2022/02/12 11:00:43;;;;;;;6.55;1.33;;;;;;;6.15;83.75;102187.56;5212415;28;20402;-80
2022/02/12 11:03:16;;;;;;;5.72;1.50;;;;;;;6.27;83.39;102183.34;5213449;28;20068;-81
2022/02/12 11:05:54;;;;;;;9.70;1.25;;;;;;;6.30;83.21;102180.78;5217057;28;20033;-81
2022/02/12 11:08:26;;;;;;;6.93;1.75;;;;;;;6.03;80.73;102171.91;5217128;28;20502;-79
2022/02/12 11:10:57;;;;;;;5.38;1.25;;;;;;;6.04;82.32;102173.63;5206590;28;20680;-80
2022/02/12 11:13:29;;;;;;;8.02;1.48;;;;;;;6.27;82.47;102172.09;5207647;28;20026;-79
2022/02/12 11:15:59;;;;;;;9.82;1.50;;;;;;;6.18;79.97;102159.03;5217991;28;20029;-80
2022/02/12 11:18:30;;;;;;;5.32;1.45;;;;;;;6.37;81.83;102159.19;5220998;28;20096;-81
2022/02/12 11:21:00;;;;;;;6.50;1.23;;;;;;;6.38;83.32;102153.13;5207807;28;20030;-81
2022/02/12 11:23:31;;;;;;;6.72;1.40;;;;;;;6.06;80.87;102151.19;5212596;28;20018;-80
2022/02/12 11:26:02;;;;;;;9.05;1.42;;;;;;;5.66;81.67;102147.34;5218363;28;20102;-80
2022/02/12 11:28:33;;;;;;;8.53;1.33;;;;;;;5.79;80.44;102153.53;5216475;28;20335;-80
2022/02/12 11:31:22;;;;;;;8.68;1.58;;;;;;;5.94;83.14;102135.50;5212782;28;20321;-79
2022/02/12 11:34:01;;;;;;;8.30;1.40;;;;;;;5.95;81.25;102137.25;5213549;28;20090;-80
2022/02/12 11:36:32;;;;;;;9.30;1.30;;;;;;;5.86;81.83;102134.56;5215447;28;20027;-79
2022/02/12 11:39:13;;;;;;;6.80;1.20;;;;;;;5.75;81.01;102128.41;5213275;28;20035;-80
2022/02/12 11:41:45;;;;;;;7.43;1.30;;;;;;;5.78;81.80;102116.34;5211695;28;20026;-79
2022/02/12 11:44:41;;;;;;;5.72;1.35;;;;;;;5.89;78.96;102117.31;5212817;28;20117;-80
2022/02/12 11:47:12;;;;;;;;;;;;;;;6.09;76.60;102120.06;5202950;28;20021;-80
2022/02/12 11:49:46;;;;;;;4.43;1.05;;;;;;;6.13;75.49;102106.25;5212735;28;19991;-81